<?xml version="1.0" encoding="UTF-8" standalone="no" ?>
<gpx xmlns="http://www.topografix.com/GPX/1/1" xmlns:xsi="http://www.w3.org/2001/XMLSchema-instance" xsi:schemaLocation="http://www.topografix.com/GPX/1/1 http://www.topografix.com/GPX/1/1/gpx.xsd" version="1.1" creator="VisuGPX - https://www.visugpx.com">
  <metadata>
    <name>12465829-rando 28.01.2021-A</name>
  </metadata>
  <trk>
    <name><![CDATA[12465829-rando 28.01.2021-A]]></name>
    <trkseg>
      <trkpt lat="44.13887" lon="4.98842">
        <ele>125</ele>
        <time>2021-01-24T07:56:42Z</time>
      </trkpt>
      <trkpt lat="44.13899" lon="4.98861">
        <ele>125</ele>
        <time>2021-01-24T07:56:57Z</time>
      </trkpt>
      <trkpt lat="44.13905" lon="4.98878">
        <ele>126</ele>
        <time>2021-01-24T07:57:07Z</time>
      </trkpt>
      <trkpt lat="44.13919" lon="4.98901">
        <ele>126</ele>
        <time>2021-01-24T07:57:25Z</time>
      </trkpt>
      <trkpt lat="44.13924" lon="4.98916">
        <ele>126</ele>
        <time>2021-01-24T07:57:34Z</time>
      </trkpt>
      <trkpt lat="44.13946" lon="4.98934">
        <ele>128</ele>
        <time>2021-01-24T07:57:55Z</time>
      </trkpt>
      <trkpt lat="44.13957" lon="4.98938">
        <ele>129</ele>
        <time>2021-01-24T07:58:04Z</time>
      </trkpt>
      <trkpt lat="44.13967" lon="4.98951">
        <ele>129</ele>
        <time>2021-01-24T07:58:15Z</time>
      </trkpt>
      <trkpt lat="44.13973" lon="4.98955">
        <ele>129</ele>
        <time>2021-01-24T07:58:20Z</time>
      </trkpt>
      <trkpt lat="44.14002" lon="4.98959">
        <ele>130</ele>
        <time>2021-01-24T07:58:43Z</time>
      </trkpt>
      <trkpt lat="44.14033" lon="4.9898">
        <ele>131</ele>
        <time>2021-01-24T07:59:11Z</time>
      </trkpt>
      <trkpt lat="44.14069" lon="4.98996">
        <ele>132</ele>
        <time>2021-01-24T07:59:41Z</time>
      </trkpt>
      <trkpt lat="44.1409" lon="4.99001">
        <ele>134</ele>
        <time>2021-01-24T07:59:58Z</time>
      </trkpt>
      <trkpt lat="44.14091" lon="4.99004">
        <ele>134</ele>
        <time>2021-01-24T08:00:00Z</time>
      </trkpt>
      <trkpt lat="44.14102" lon="4.99007">
        <ele>135</ele>
        <time>2021-01-24T08:00:09Z</time>
      </trkpt>
      <trkpt lat="44.14119" lon="4.99016">
        <ele>137</ele>
        <time>2021-01-24T08:00:24Z</time>
      </trkpt>
      <trkpt lat="44.14131" lon="4.99013">
        <ele>138</ele>
        <time>2021-01-24T08:00:34Z</time>
      </trkpt>
      <trkpt lat="44.14152" lon="4.99017">
        <ele>140</ele>
        <time>2021-01-24T08:00:50Z</time>
      </trkpt>
      <trkpt lat="44.14184" lon="4.99036">
        <ele>142</ele>
        <time>2021-01-24T08:01:18Z</time>
      </trkpt>
      <trkpt lat="44.14192" lon="4.99049">
        <ele>143</ele>
        <time>2021-01-24T08:01:28Z</time>
      </trkpt>
      <trkpt lat="44.14205" lon="4.99058">
        <ele>144</ele>
        <time>2021-01-24T08:01:40Z</time>
      </trkpt>
      <trkpt lat="44.1422" lon="4.99062">
        <ele>145</ele>
        <time>2021-01-24T08:01:52Z</time>
      </trkpt>
      <trkpt lat="44.14231" lon="4.99075">
        <ele>146</ele>
        <time>2021-01-24T08:02:04Z</time>
      </trkpt>
      <trkpt lat="44.14246" lon="4.99086">
        <ele>147</ele>
        <time>2021-01-24T08:02:17Z</time>
      </trkpt>
      <trkpt lat="44.14255" lon="4.99084">
        <ele>148</ele>
        <time>2021-01-24T08:02:24Z</time>
      </trkpt>
      <trkpt lat="44.14267" lon="4.99085">
        <ele>149</ele>
        <time>2021-01-24T08:02:34Z</time>
      </trkpt>
      <trkpt lat="44.14292" lon="4.9909">
        <ele>150</ele>
        <time>2021-01-24T08:02:54Z</time>
      </trkpt>
      <trkpt lat="44.14308" lon="4.99086">
        <ele>152</ele>
        <time>2021-01-24T08:03:07Z</time>
      </trkpt>
      <trkpt lat="44.14345" lon="4.99086">
        <ele>155</ele>
        <time>2021-01-24T08:03:37Z</time>
      </trkpt>
      <trkpt lat="44.1437" lon="4.99081">
        <ele>158</ele>
        <time>2021-01-24T08:03:57Z</time>
      </trkpt>
      <trkpt lat="44.14409" lon="4.99086">
        <ele>162</ele>
        <time>2021-01-24T08:04:29Z</time>
      </trkpt>
      <trkpt lat="44.14424" lon="4.99082">
        <ele>164</ele>
        <time>2021-01-24T08:04:41Z</time>
      </trkpt>
      <trkpt lat="44.14466" lon="4.99084">
        <ele>169</ele>
        <time>2021-01-24T08:05:14Z</time>
      </trkpt>
      <trkpt lat="44.14473" lon="4.99081">
        <ele>170</ele>
        <time>2021-01-24T08:05:20Z</time>
      </trkpt>
      <trkpt lat="44.14514" lon="4.9908">
        <ele>174</ele>
        <time>2021-01-24T08:05:53Z</time>
      </trkpt>
      <trkpt lat="44.14517" lon="4.99076">
        <ele>175</ele>
        <time>2021-01-24T08:05:56Z</time>
      </trkpt>
      <trkpt lat="44.14518" lon="4.99079">
        <ele>175</ele>
        <time>2021-01-24T08:05:58Z</time>
      </trkpt>
      <trkpt lat="44.14546" lon="4.99081">
        <ele>177</ele>
        <time>2021-01-24T08:06:21Z</time>
      </trkpt>
      <trkpt lat="44.14564" lon="4.99078">
        <ele>179</ele>
        <time>2021-01-24T08:06:35Z</time>
      </trkpt>
      <trkpt lat="44.14605" lon="4.99078">
        <ele>183</ele>
        <time>2021-01-24T08:07:08Z</time>
      </trkpt>
      <trkpt lat="44.14617" lon="4.99076">
        <ele>185</ele>
        <time>2021-01-24T08:07:18Z</time>
      </trkpt>
      <trkpt lat="44.14613" lon="4.99016">
        <ele>184</ele>
        <time>2021-01-24T08:07:52Z</time>
      </trkpt>
      <trkpt lat="44.14623" lon="4.99008">
        <ele>185</ele>
        <time>2021-01-24T08:08:02Z</time>
      </trkpt>
      <trkpt lat="44.14666" lon="4.99016">
        <ele>190</ele>
        <time>2021-01-24T08:08:36Z</time>
      </trkpt>
      <trkpt lat="44.14698" lon="4.99017">
        <ele>194</ele>
        <time>2021-01-24T08:09:02Z</time>
      </trkpt>
      <trkpt lat="44.14718" lon="4.99021">
        <ele>196</ele>
        <time>2021-01-24T08:09:18Z</time>
      </trkpt>
      <trkpt lat="44.14782" lon="4.99021">
        <ele>203</ele>
        <time>2021-01-24T08:10:09Z</time>
      </trkpt>
      <trkpt lat="44.14804" lon="4.9903">
        <ele>205</ele>
        <time>2021-01-24T08:10:28Z</time>
      </trkpt>
      <trkpt lat="44.14884" lon="4.9903">
        <ele>214</ele>
        <time>2021-01-24T08:11:32Z</time>
      </trkpt>
      <trkpt lat="44.14898" lon="4.99039">
        <ele>214</ele>
        <time>2021-01-24T08:11:44Z</time>
      </trkpt>
      <trkpt lat="44.14913" lon="4.99034">
        <ele>216</ele>
        <time>2021-01-24T08:11:57Z</time>
      </trkpt>
      <trkpt lat="44.14948" lon="4.99042">
        <ele>220</ele>
        <time>2021-01-24T08:12:25Z</time>
      </trkpt>
      <trkpt lat="44.14961" lon="4.99039">
        <ele>221</ele>
        <time>2021-01-24T08:12:35Z</time>
      </trkpt>
      <trkpt lat="44.14969" lon="4.99042">
        <ele>222</ele>
        <time>2021-01-24T08:12:42Z</time>
      </trkpt>
      <trkpt lat="44.14979" lon="4.99037">
        <ele>224</ele>
        <time>2021-01-24T08:12:51Z</time>
      </trkpt>
      <trkpt lat="44.14986" lon="4.99037">
        <ele>225</ele>
        <time>2021-01-24T08:12:56Z</time>
      </trkpt>
      <trkpt lat="44.15012" lon="4.99029">
        <ele>228</ele>
        <time>2021-01-24T08:13:18Z</time>
      </trkpt>
      <trkpt lat="44.15069" lon="4.99042">
        <ele>233</ele>
        <time>2021-01-24T08:14:04Z</time>
      </trkpt>
      <trkpt lat="44.15089" lon="4.99039">
        <ele>235</ele>
        <time>2021-01-24T08:14:20Z</time>
      </trkpt>
      <trkpt lat="44.15108" lon="4.99045">
        <ele>236</ele>
        <time>2021-01-24T08:14:35Z</time>
      </trkpt>
      <trkpt lat="44.15122" lon="4.99041">
        <ele>237</ele>
        <time>2021-01-24T08:14:47Z</time>
      </trkpt>
      <trkpt lat="44.15132" lon="4.99048">
        <ele>238</ele>
        <time>2021-01-24T08:14:56Z</time>
      </trkpt>
      <trkpt lat="44.15139" lon="4.99046">
        <ele>238</ele>
        <time>2021-01-24T08:15:02Z</time>
      </trkpt>
      <trkpt lat="44.15174" lon="4.99064">
        <ele>242</ele>
        <time>2021-01-24T08:15:31Z</time>
      </trkpt>
      <trkpt lat="44.15206" lon="4.99067">
        <ele>243</ele>
        <time>2021-01-24T08:15:57Z</time>
      </trkpt>
      <trkpt lat="44.15257" lon="4.99085">
        <ele>246</ele>
        <time>2021-01-24T08:16:39Z</time>
      </trkpt>
      <trkpt lat="44.1527" lon="4.99093">
        <ele>245</ele>
        <time>2021-01-24T08:16:51Z</time>
      </trkpt>
      <trkpt lat="44.15309" lon="4.99099">
        <ele>244</ele>
        <time>2021-01-24T08:17:22Z</time>
      </trkpt>
      <trkpt lat="44.1534" lon="4.99113">
        <ele>243</ele>
        <time>2021-01-24T08:17:48Z</time>
      </trkpt>
      <trkpt lat="44.15382" lon="4.99121">
        <ele>242</ele>
        <time>2021-01-24T08:18:22Z</time>
      </trkpt>
      <trkpt lat="44.15391" lon="4.99132">
        <ele>243</ele>
        <time>2021-01-24T08:18:32Z</time>
      </trkpt>
      <trkpt lat="44.15417" lon="4.99148">
        <ele>246</ele>
        <time>2021-01-24T08:18:54Z</time>
      </trkpt>
      <trkpt lat="44.15434" lon="4.99162">
        <ele>247</ele>
        <time>2021-01-24T08:19:10Z</time>
      </trkpt>
      <trkpt lat="44.15446" lon="4.99168">
        <ele>246</ele>
        <time>2021-01-24T08:19:20Z</time>
      </trkpt>
      <trkpt lat="44.15458" lon="4.99181">
        <ele>244</ele>
        <time>2021-01-24T08:19:33Z</time>
      </trkpt>
      <trkpt lat="44.1546" lon="4.99196">
        <ele>243</ele>
        <time>2021-01-24T08:19:41Z</time>
      </trkpt>
      <trkpt lat="44.15464" lon="4.99197">
        <ele>243</ele>
        <time>2021-01-24T08:19:45Z</time>
      </trkpt>
      <trkpt lat="44.15466" lon="4.99194">
        <ele>243</ele>
        <time>2021-01-24T08:19:47Z</time>
      </trkpt>
      <trkpt lat="44.15477" lon="4.99192">
        <ele>243</ele>
        <time>2021-01-24T08:19:56Z</time>
      </trkpt>
      <trkpt lat="44.1553" lon="4.99229">
        <ele>242</ele>
        <time>2021-01-24T08:20:43Z</time>
      </trkpt>
      <trkpt lat="44.15549" lon="4.99247">
        <ele>243</ele>
        <time>2021-01-24T08:21:02Z</time>
      </trkpt>
      <trkpt lat="44.15569" lon="4.9926">
        <ele>241</ele>
        <time>2021-01-24T08:21:19Z</time>
      </trkpt>
      <trkpt lat="44.15571" lon="4.99266">
        <ele>240</ele>
        <time>2021-01-24T08:21:23Z</time>
      </trkpt>
      <trkpt lat="44.15581" lon="4.99273">
        <ele>239</ele>
        <time>2021-01-24T08:21:32Z</time>
      </trkpt>
      <trkpt lat="44.15596" lon="4.9929">
        <ele>233</ele>
        <time>2021-01-24T08:21:48Z</time>
      </trkpt>
      <trkpt lat="44.15597" lon="4.993">
        <ele>232</ele>
        <time>2021-01-24T08:21:53Z</time>
      </trkpt>
      <trkpt lat="44.15594" lon="4.99313">
        <ele>231</ele>
        <time>2021-01-24T08:22:01Z</time>
      </trkpt>
      <trkpt lat="44.15591" lon="4.99313">
        <ele>232</ele>
        <time>2021-01-24T08:22:04Z</time>
      </trkpt>
      <trkpt lat="44.15587" lon="4.99318">
        <ele>232</ele>
        <time>2021-01-24T08:22:08Z</time>
      </trkpt>
      <trkpt lat="44.15572" lon="4.99314">
        <ele>233</ele>
        <time>2021-01-24T08:22:20Z</time>
      </trkpt>
      <trkpt lat="44.15569" lon="4.99318">
        <ele>233</ele>
        <time>2021-01-24T08:22:24Z</time>
      </trkpt>
      <trkpt lat="44.15579" lon="4.99324">
        <ele>232</ele>
        <time>2021-01-24T08:22:32Z</time>
      </trkpt>
      <trkpt lat="44.15583" lon="4.99323">
        <ele>232</ele>
        <time>2021-01-24T08:22:36Z</time>
      </trkpt>
      <trkpt lat="44.15601" lon="4.99342">
        <ele>227</ele>
        <time>2021-01-24T08:22:54Z</time>
      </trkpt>
      <trkpt lat="44.15617" lon="4.99347">
        <ele>224</ele>
        <time>2021-01-24T08:23:07Z</time>
      </trkpt>
      <trkpt lat="44.15627" lon="4.99331">
        <ele>223</ele>
        <time>2021-01-24T08:23:19Z</time>
      </trkpt>
      <trkpt lat="44.15644" lon="4.99325">
        <ele>220</ele>
        <time>2021-01-24T08:23:33Z</time>
      </trkpt>
      <trkpt lat="44.15661" lon="4.9934">
        <ele>217</ele>
        <time>2021-01-24T08:23:49Z</time>
      </trkpt>
      <trkpt lat="44.15666" lon="4.9935">
        <ele>217</ele>
        <time>2021-01-24T08:23:56Z</time>
      </trkpt>
      <trkpt lat="44.15664" lon="4.99352">
        <ele>217</ele>
        <time>2021-01-24T08:23:58Z</time>
      </trkpt>
      <trkpt lat="44.1566" lon="4.99349">
        <ele>218</ele>
        <time>2021-01-24T08:24:02Z</time>
      </trkpt>
      <trkpt lat="44.15652" lon="4.99359">
        <ele>219</ele>
        <time>2021-01-24T08:24:10Z</time>
      </trkpt>
      <trkpt lat="44.15628" lon="4.9937">
        <ele>221</ele>
        <time>2021-01-24T08:24:31Z</time>
      </trkpt>
      <trkpt lat="44.15621" lon="4.99384">
        <ele>221</ele>
        <time>2021-01-24T08:24:40Z</time>
      </trkpt>
      <trkpt lat="44.15613" lon="4.99393">
        <ele>221</ele>
        <time>2021-01-24T08:24:49Z</time>
      </trkpt>
      <trkpt lat="44.15596" lon="4.99403">
        <ele>221</ele>
        <time>2021-01-24T08:25:03Z</time>
      </trkpt>
      <trkpt lat="44.15599" lon="4.99413">
        <ele>220</ele>
        <time>2021-01-24T08:25:10Z</time>
      </trkpt>
      <trkpt lat="44.15627" lon="4.99465">
        <ele>224</ele>
        <time>2021-01-24T08:25:47Z</time>
      </trkpt>
      <trkpt lat="44.15629" lon="4.99482">
        <ele>226</ele>
        <time>2021-01-24T08:25:57Z</time>
      </trkpt>
      <trkpt lat="44.15632" lon="4.99489">
        <ele>227</ele>
        <time>2021-01-24T08:26:01Z</time>
      </trkpt>
      <trkpt lat="44.15645" lon="4.99502">
        <ele>229</ele>
        <time>2021-01-24T08:26:14Z</time>
      </trkpt>
      <trkpt lat="44.15648" lon="4.99513">
        <ele>230</ele>
        <time>2021-01-24T08:26:21Z</time>
      </trkpt>
      <trkpt lat="44.15655" lon="4.99525">
        <ele>232</ele>
        <time>2021-01-24T08:26:30Z</time>
      </trkpt>
      <trkpt lat="44.15661" lon="4.99529">
        <ele>232</ele>
        <time>2021-01-24T08:26:35Z</time>
      </trkpt>
      <trkpt lat="44.1566" lon="4.99543">
        <ele>233</ele>
        <time>2021-01-24T08:26:43Z</time>
      </trkpt>
      <trkpt lat="44.15654" lon="4.99543">
        <ele>233</ele>
        <time>2021-01-24T08:26:48Z</time>
      </trkpt>
      <trkpt lat="44.15647" lon="4.99555">
        <ele>233</ele>
        <time>2021-01-24T08:26:57Z</time>
      </trkpt>
      <trkpt lat="44.1564" lon="4.99555">
        <ele>233</ele>
        <time>2021-01-24T08:27:03Z</time>
      </trkpt>
      <trkpt lat="44.15623" lon="4.99579">
        <ele>235</ele>
        <time>2021-01-24T08:27:22Z</time>
      </trkpt>
      <trkpt lat="44.15596" lon="4.99601">
        <ele>236</ele>
        <time>2021-01-24T08:27:47Z</time>
      </trkpt>
      <trkpt lat="44.15579" lon="4.99625">
        <ele>238</ele>
        <time>2021-01-24T08:28:06Z</time>
      </trkpt>
      <trkpt lat="44.15542" lon="4.99637">
        <ele>237</ele>
        <time>2021-01-24T08:28:37Z</time>
      </trkpt>
      <trkpt lat="44.15533" lon="4.99645">
        <ele>238</ele>
        <time>2021-01-24T08:28:45Z</time>
      </trkpt>
      <trkpt lat="44.15526" lon="4.99646">
        <ele>237</ele>
        <time>2021-01-24T08:28:51Z</time>
      </trkpt>
      <trkpt lat="44.1551" lon="4.99654">
        <ele>238</ele>
        <time>2021-01-24T08:29:05Z</time>
      </trkpt>
      <trkpt lat="44.15478" lon="4.99655">
        <ele>234</ele>
        <time>2021-01-24T08:29:30Z</time>
      </trkpt>
      <trkpt lat="44.15462" lon="4.99659">
        <ele>232</ele>
        <time>2021-01-24T08:29:43Z</time>
      </trkpt>
      <trkpt lat="44.15459" lon="4.99676">
        <ele>233</ele>
        <time>2021-01-24T08:29:53Z</time>
      </trkpt>
      <trkpt lat="44.1547" lon="4.99707">
        <ele>236</ele>
        <time>2021-01-24T08:30:13Z</time>
      </trkpt>
      <trkpt lat="44.15472" lon="4.99726">
        <ele>237</ele>
        <time>2021-01-24T08:30:24Z</time>
      </trkpt>
      <trkpt lat="44.15478" lon="4.99744">
        <ele>238</ele>
        <time>2021-01-24T08:30:36Z</time>
      </trkpt>
      <trkpt lat="44.15486" lon="4.99783">
        <ele>239</ele>
        <time>2021-01-24T08:30:59Z</time>
      </trkpt>
      <trkpt lat="44.1551" lon="4.99857">
        <ele>242</ele>
        <time>2021-01-24T08:31:46Z</time>
      </trkpt>
      <trkpt lat="44.15523" lon="4.99862">
        <ele>244</ele>
        <time>2021-01-24T08:31:56Z</time>
      </trkpt>
      <trkpt lat="44.15525" lon="4.99865">
        <ele>245</ele>
        <time>2021-01-24T08:31:59Z</time>
      </trkpt>
      <trkpt lat="44.15541" lon="4.99868">
        <ele>248</ele>
        <time>2021-01-24T08:32:12Z</time>
      </trkpt>
      <trkpt lat="44.1556" lon="4.99852">
        <ele>249</ele>
        <time>2021-01-24T08:32:29Z</time>
      </trkpt>
      <trkpt lat="44.15573" lon="4.99851">
        <ele>251</ele>
        <time>2021-01-24T08:32:40Z</time>
      </trkpt>
      <trkpt lat="44.15598" lon="4.99843">
        <ele>253</ele>
        <time>2021-01-24T08:33:00Z</time>
      </trkpt>
      <trkpt lat="44.15605" lon="4.99843">
        <ele>253</ele>
        <time>2021-01-24T08:33:06Z</time>
      </trkpt>
      <trkpt lat="44.1562" lon="4.99837">
        <ele>254</ele>
        <time>2021-01-24T08:33:18Z</time>
      </trkpt>
      <trkpt lat="44.15641" lon="4.99834">
        <ele>255</ele>
        <time>2021-01-24T08:33:35Z</time>
      </trkpt>
      <trkpt lat="44.15662" lon="4.99835">
        <ele>257</ele>
        <time>2021-01-24T08:33:52Z</time>
      </trkpt>
      <trkpt lat="44.15695" lon="4.99832">
        <ele>258</ele>
        <time>2021-01-24T08:34:19Z</time>
      </trkpt>
      <trkpt lat="44.15745" lon="4.99819">
        <ele>257</ele>
        <time>2021-01-24T08:34:59Z</time>
      </trkpt>
      <trkpt lat="44.15776" lon="4.99828">
        <ele>256</ele>
        <time>2021-01-24T08:35:25Z</time>
      </trkpt>
      <trkpt lat="44.15782" lon="4.99844">
        <ele>257</ele>
        <time>2021-01-24T08:35:35Z</time>
      </trkpt>
      <trkpt lat="44.15782" lon="4.99857">
        <ele>259</ele>
        <time>2021-01-24T08:35:43Z</time>
      </trkpt>
      <trkpt lat="44.15787" lon="4.99883">
        <ele>261</ele>
        <time>2021-01-24T08:35:58Z</time>
      </trkpt>
      <trkpt lat="44.15791" lon="4.99896">
        <ele>263</ele>
        <time>2021-01-24T08:36:06Z</time>
      </trkpt>
      <trkpt lat="44.15801" lon="4.99914">
        <ele>265</ele>
        <time>2021-01-24T08:36:19Z</time>
      </trkpt>
      <trkpt lat="44.15816" lon="4.99929">
        <ele>265</ele>
        <time>2021-01-24T08:36:34Z</time>
      </trkpt>
      <trkpt lat="44.15857" lon="4.99959">
        <ele>263</ele>
        <time>2021-01-24T08:37:11Z</time>
      </trkpt>
      <trkpt lat="44.15881" lon="4.99962">
        <ele>260</ele>
        <time>2021-01-24T08:37:30Z</time>
      </trkpt>
      <trkpt lat="44.15905" lon="4.99971">
        <ele>259</ele>
        <time>2021-01-24T08:37:50Z</time>
      </trkpt>
      <trkpt lat="44.15927" lon="5.00008">
        <ele>263</ele>
        <time>2021-01-24T08:38:18Z</time>
      </trkpt>
      <trkpt lat="44.15932" lon="5.00022">
        <ele>264</ele>
        <time>2021-01-24T08:38:27Z</time>
      </trkpt>
      <trkpt lat="44.15958" lon="5.00048">
        <ele>267</ele>
        <time>2021-01-24T08:38:53Z</time>
      </trkpt>
      <trkpt lat="44.15992" lon="5.00061">
        <ele>270</ele>
        <time>2021-01-24T08:39:21Z</time>
      </trkpt>
      <trkpt lat="44.15992" lon="5.00069">
        <ele>272</ele>
        <time>2021-01-24T08:39:25Z</time>
      </trkpt>
      <trkpt lat="44.15979" lon="5.00098">
        <ele>276</ele>
        <time>2021-01-24T08:39:45Z</time>
      </trkpt>
      <trkpt lat="44.15975" lon="5.00121">
        <ele>278</ele>
        <time>2021-01-24T08:39:59Z</time>
      </trkpt>
      <trkpt lat="44.1597" lon="5.00132">
        <ele>278</ele>
        <time>2021-01-24T08:40:06Z</time>
      </trkpt>
      <trkpt lat="44.15973" lon="5.00147">
        <ele>280</ele>
        <time>2021-01-24T08:40:15Z</time>
      </trkpt>
      <trkpt lat="44.15951" lon="5.00149">
        <ele>278</ele>
        <time>2021-01-24T08:40:33Z</time>
      </trkpt>
      <trkpt lat="44.15953" lon="5.00158">
        <ele>279</ele>
        <time>2021-01-24T08:40:38Z</time>
      </trkpt>
      <trkpt lat="44.1596" lon="5.00163">
        <ele>280</ele>
        <time>2021-01-24T08:40:44Z</time>
      </trkpt>
      <trkpt lat="44.15982" lon="5.00168">
        <ele>282</ele>
        <time>2021-01-24T08:41:02Z</time>
      </trkpt>
      <trkpt lat="44.15986" lon="5.00177">
        <ele>283</ele>
        <time>2021-01-24T08:41:08Z</time>
      </trkpt>
      <trkpt lat="44.15987" lon="5.00182">
        <ele>283</ele>
        <time>2021-01-24T08:41:11Z</time>
      </trkpt>
      <trkpt lat="44.15984" lon="5.00193">
        <ele>284</ele>
        <time>2021-01-24T08:41:18Z</time>
      </trkpt>
      <trkpt lat="44.15987" lon="5.00224">
        <ele>285</ele>
        <time>2021-01-24T08:41:36Z</time>
      </trkpt>
      <trkpt lat="44.15996" lon="5.00246">
        <ele>287</ele>
        <time>2021-01-24T08:41:51Z</time>
      </trkpt>
      <trkpt lat="44.16015" lon="5.00279">
        <ele>288</ele>
        <time>2021-01-24T08:42:15Z</time>
      </trkpt>
      <trkpt lat="44.1602" lon="5.00309">
        <ele>288</ele>
        <time>2021-01-24T08:42:33Z</time>
      </trkpt>
      <trkpt lat="44.16018" lon="5.00329">
        <ele>288</ele>
        <time>2021-01-24T08:42:44Z</time>
      </trkpt>
      <trkpt lat="44.1601" lon="5.00338">
        <ele>288</ele>
        <time>2021-01-24T08:42:52Z</time>
      </trkpt>
      <trkpt lat="44.16" lon="5.0034">
        <ele>289</ele>
        <time>2021-01-24T08:43:00Z</time>
      </trkpt>
      <trkpt lat="44.15994" lon="5.00352">
        <ele>290</ele>
        <time>2021-01-24T08:43:09Z</time>
      </trkpt>
      <trkpt lat="44.15976" lon="5.0037">
        <ele>292</ele>
        <time>2021-01-24T08:43:27Z</time>
      </trkpt>
      <trkpt lat="44.15968" lon="5.00388">
        <ele>293</ele>
        <time>2021-01-24T08:43:39Z</time>
      </trkpt>
      <trkpt lat="44.15965" lon="5.00405">
        <ele>294</ele>
        <time>2021-01-24T08:43:49Z</time>
      </trkpt>
      <trkpt lat="44.15948" lon="5.00427">
        <ele>298</ele>
        <time>2021-01-24T08:44:07Z</time>
      </trkpt>
      <trkpt lat="44.15948" lon="5.00436">
        <ele>299</ele>
        <time>2021-01-24T08:44:13Z</time>
      </trkpt>
      <trkpt lat="44.15941" lon="5.00439">
        <ele>300</ele>
        <time>2021-01-24T08:44:18Z</time>
      </trkpt>
      <trkpt lat="44.15935" lon="5.00449">
        <ele>302</ele>
        <time>2021-01-24T08:44:26Z</time>
      </trkpt>
      <trkpt lat="44.1593" lon="5.00461">
        <ele>304</ele>
        <time>2021-01-24T08:44:34Z</time>
      </trkpt>
      <trkpt lat="44.15927" lon="5.00482">
        <ele>307</ele>
        <time>2021-01-24T08:44:46Z</time>
      </trkpt>
      <trkpt lat="44.15933" lon="5.00506">
        <ele>308</ele>
        <time>2021-01-24T08:45:01Z</time>
      </trkpt>
      <trkpt lat="44.15929" lon="5.00522">
        <ele>310</ele>
        <time>2021-01-24T08:45:11Z</time>
      </trkpt>
      <trkpt lat="44.15929" lon="5.00554">
        <ele>314</ele>
        <time>2021-01-24T08:45:29Z</time>
      </trkpt>
      <trkpt lat="44.15933" lon="5.00593">
        <ele>318</ele>
        <time>2021-01-24T08:45:52Z</time>
      </trkpt>
      <trkpt lat="44.15938" lon="5.00608">
        <ele>318</ele>
        <time>2021-01-24T08:46:01Z</time>
      </trkpt>
      <trkpt lat="44.15938" lon="5.00643">
        <ele>322</ele>
        <time>2021-01-24T08:46:21Z</time>
      </trkpt>
      <trkpt lat="44.15927" lon="5.00719">
        <ele>334</ele>
        <time>2021-01-24T08:47:06Z</time>
      </trkpt>
      <trkpt lat="44.15924" lon="5.00727">
        <ele>336</ele>
        <time>2021-01-24T08:47:11Z</time>
      </trkpt>
      <trkpt lat="44.15925" lon="5.00792">
        <ele>345</ele>
        <time>2021-01-24T08:47:48Z</time>
      </trkpt>
      <trkpt lat="44.15918" lon="5.00807">
        <ele>349</ele>
        <time>2021-01-24T08:47:58Z</time>
      </trkpt>
      <trkpt lat="44.15915" lon="5.0083">
        <ele>354</ele>
        <time>2021-01-24T08:48:12Z</time>
      </trkpt>
      <trkpt lat="44.15918" lon="5.0085">
        <ele>357</ele>
        <time>2021-01-24T08:48:24Z</time>
      </trkpt>
      <trkpt lat="44.15931" lon="5.00879">
        <ele>359</ele>
        <time>2021-01-24T08:48:43Z</time>
      </trkpt>
      <trkpt lat="44.15938" lon="5.00927">
        <ele>368</ele>
        <time>2021-01-24T08:49:11Z</time>
      </trkpt>
      <trkpt lat="44.15931" lon="5.00903">
        <ele>365</ele>
        <time>2021-01-24T08:49:26Z</time>
      </trkpt>
      <trkpt lat="44.15918" lon="5.00888">
        <ele>366</ele>
        <time>2021-01-24T08:49:40Z</time>
      </trkpt>
      <trkpt lat="44.15911" lon="5.00875">
        <ele>365</ele>
        <time>2021-01-24T08:49:49Z</time>
      </trkpt>
      <trkpt lat="44.15887" lon="5.00863">
        <ele>366</ele>
        <time>2021-01-24T08:50:10Z</time>
      </trkpt>
      <trkpt lat="44.15864" lon="5.00878">
        <ele>374</ele>
        <time>2021-01-24T08:50:30Z</time>
      </trkpt>
      <trkpt lat="44.15852" lon="5.0088">
        <ele>377</ele>
        <time>2021-01-24T08:50:40Z</time>
      </trkpt>
      <trkpt lat="44.15844" lon="5.00877">
        <ele>378</ele>
        <time>2021-01-24T08:50:46Z</time>
      </trkpt>
      <trkpt lat="44.15818" lon="5.00876">
        <ele>379</ele>
        <time>2021-01-24T08:51:07Z</time>
      </trkpt>
      <trkpt lat="44.15783" lon="5.00881">
        <ele>379</ele>
        <time>2021-01-24T08:51:35Z</time>
      </trkpt>
      <trkpt lat="44.15752" lon="5.00932">
        <ele>391</ele>
        <time>2021-01-24T08:52:14Z</time>
      </trkpt>
      <trkpt lat="44.15734" lon="5.00938">
        <ele>395</ele>
        <time>2021-01-24T08:52:28Z</time>
      </trkpt>
      <trkpt lat="44.1572" lon="5.00958">
        <ele>401</ele>
        <time>2021-01-24T08:52:44Z</time>
      </trkpt>
      <trkpt lat="44.15716" lon="5.0096">
        <ele>402</ele>
        <time>2021-01-24T08:52:48Z</time>
      </trkpt>
      <trkpt lat="44.15715" lon="5.00969">
        <ele>404</ele>
        <time>2021-01-24T08:52:53Z</time>
      </trkpt>
      <trkpt lat="44.15705" lon="5.0099">
        <ele>408</ele>
        <time>2021-01-24T08:53:08Z</time>
      </trkpt>
      <trkpt lat="44.157" lon="5.00997">
        <ele>410</ele>
        <time>2021-01-24T08:53:13Z</time>
      </trkpt>
      <trkpt lat="44.1569" lon="5.01004">
        <ele>410</ele>
        <time>2021-01-24T08:53:22Z</time>
      </trkpt>
      <trkpt lat="44.15688" lon="5.01017">
        <ele>414</ele>
        <time>2021-01-24T08:53:30Z</time>
      </trkpt>
      <trkpt lat="44.15676" lon="5.01026">
        <ele>415</ele>
        <time>2021-01-24T08:53:41Z</time>
      </trkpt>
      <trkpt lat="44.15661" lon="5.01033">
        <ele>417</ele>
        <time>2021-01-24T08:53:53Z</time>
      </trkpt>
      <trkpt lat="44.15652" lon="5.01021">
        <ele>414</ele>
        <time>2021-01-24T08:54:03Z</time>
      </trkpt>
      <trkpt lat="44.15635" lon="5.01006">
        <ele>413</ele>
        <time>2021-01-24T08:54:20Z</time>
      </trkpt>
      <trkpt lat="44.15607" lon="5.01009">
        <ele>416</ele>
        <time>2021-01-24T08:54:42Z</time>
      </trkpt>
      <trkpt lat="44.15596" lon="5.01014">
        <ele>418</ele>
        <time>2021-01-24T08:54:51Z</time>
      </trkpt>
      <trkpt lat="44.15613" lon="5.00982">
        <ele>414</ele>
        <time>2021-01-24T08:55:14Z</time>
      </trkpt>
      <trkpt lat="44.15632" lon="5.00959">
        <ele>409</ele>
        <time>2021-01-24T08:55:34Z</time>
      </trkpt>
      <trkpt lat="44.1566" lon="5.00936">
        <ele>401</ele>
        <time>2021-01-24T08:56:00Z</time>
      </trkpt>
      <trkpt lat="44.1567" lon="5.00902">
        <ele>397</ele>
        <time>2021-01-24T08:56:21Z</time>
      </trkpt>
      <trkpt lat="44.15697" lon="5.00832">
        <ele>386</ele>
        <time>2021-01-24T08:57:07Z</time>
      </trkpt>
      <trkpt lat="44.15708" lon="5.00794">
        <ele>379</ele>
        <time>2021-01-24T08:57:31Z</time>
      </trkpt>
      <trkpt lat="44.15739" lon="5.00741">
        <ele>359</ele>
        <time>2021-01-24T08:58:10Z</time>
      </trkpt>
      <trkpt lat="44.15752" lon="5.00699">
        <ele>351</ele>
        <time>2021-01-24T08:58:36Z</time>
      </trkpt>
      <trkpt lat="44.15738" lon="5.00628">
        <ele>350</ele>
        <time>2021-01-24T08:59:18Z</time>
      </trkpt>
      <trkpt lat="44.15706" lon="5.00549">
        <ele>345</ele>
        <time>2021-01-24T09:00:11Z</time>
      </trkpt>
      <trkpt lat="44.15704" lon="5.00506">
        <ele>339</ele>
        <time>2021-01-24T09:00:35Z</time>
      </trkpt>
      <trkpt lat="44.15722" lon="5.0047">
        <ele>331</ele>
        <time>2021-01-24T09:01:01Z</time>
      </trkpt>
      <trkpt lat="44.15729" lon="5.0042">
        <ele>321</ele>
        <time>2021-01-24T09:01:30Z</time>
      </trkpt>
      <trkpt lat="44.1572" lon="5.00395">
        <ele>318</ele>
        <time>2021-01-24T09:01:46Z</time>
      </trkpt>
      <trkpt lat="44.15715" lon="5.00358">
        <ele>312</ele>
        <time>2021-01-24T09:02:08Z</time>
      </trkpt>
      <trkpt lat="44.15726" lon="5.00327">
        <ele>305</ele>
        <time>2021-01-24T09:02:27Z</time>
      </trkpt>
      <trkpt lat="44.15731" lon="5.00301">
        <ele>299</ele>
        <time>2021-01-24T09:02:43Z</time>
      </trkpt>
      <trkpt lat="44.15747" lon="5.00304">
        <ele>297</ele>
        <time>2021-01-24T09:02:56Z</time>
      </trkpt>
      <trkpt lat="44.15763" lon="5.00283">
        <ele>290</ele>
        <time>2021-01-24T09:03:13Z</time>
      </trkpt>
      <trkpt lat="44.15772" lon="5.00237">
        <ele>280</ele>
        <time>2021-01-24T09:03:41Z</time>
      </trkpt>
      <trkpt lat="44.15777" lon="5.00223">
        <ele>276</ele>
        <time>2021-01-24T09:03:50Z</time>
      </trkpt>
      <trkpt lat="44.15767" lon="5.002">
        <ele>272</ele>
        <time>2021-01-24T09:04:05Z</time>
      </trkpt>
      <trkpt lat="44.15756" lon="5.00191">
        <ele>270</ele>
        <time>2021-01-24T09:04:15Z</time>
      </trkpt>
      <trkpt lat="44.15736" lon="5.00181">
        <ele>269</ele>
        <time>2021-01-24T09:04:32Z</time>
      </trkpt>
      <trkpt lat="44.15697" lon="5.00174">
        <ele>271</ele>
        <time>2021-01-24T09:05:04Z</time>
      </trkpt>
      <trkpt lat="44.1568" lon="5.00163">
        <ele>270</ele>
        <time>2021-01-24T09:05:19Z</time>
      </trkpt>
      <trkpt lat="44.15666" lon="5.00134">
        <ele>267</ele>
        <time>2021-01-24T09:05:39Z</time>
      </trkpt>
      <trkpt lat="44.15621" lon="5.00089">
        <ele>256</ele>
        <time>2021-01-24T09:06:23Z</time>
      </trkpt>
      <trkpt lat="44.1561" lon="5.0009">
        <ele>255</ele>
        <time>2021-01-24T09:06:32Z</time>
      </trkpt>
      <trkpt lat="44.15602" lon="5.00077">
        <ele>253</ele>
        <time>2021-01-24T09:06:42Z</time>
      </trkpt>
      <trkpt lat="44.15588" lon="5.00066">
        <ele>252</ele>
        <time>2021-01-24T09:06:55Z</time>
      </trkpt>
      <trkpt lat="44.15572" lon="5.00065">
        <ele>250</ele>
        <time>2021-01-24T09:07:08Z</time>
      </trkpt>
      <trkpt lat="44.15562" lon="5.00059">
        <ele>248</ele>
        <time>2021-01-24T09:07:16Z</time>
      </trkpt>
      <trkpt lat="44.15544" lon="5.00056">
        <ele>246</ele>
        <time>2021-01-24T09:07:31Z</time>
      </trkpt>
      <trkpt lat="44.15516" lon="5.00037">
        <ele>241</ele>
        <time>2021-01-24T09:07:56Z</time>
      </trkpt>
      <trkpt lat="44.15509" lon="5.00052">
        <ele>240</ele>
        <time>2021-01-24T09:08:06Z</time>
      </trkpt>
      <trkpt lat="44.15504" lon="5.00071">
        <ele>240</ele>
        <time>2021-01-24T09:08:18Z</time>
      </trkpt>
      <trkpt lat="44.15497" lon="5.00076">
        <ele>240</ele>
        <time>2021-01-24T09:08:24Z</time>
      </trkpt>
      <trkpt lat="44.15481" lon="5.00099">
        <ele>246</ele>
        <time>2021-01-24T09:08:42Z</time>
      </trkpt>
      <trkpt lat="44.15479" lon="5.00116">
        <ele>248</ele>
        <time>2021-01-24T09:08:52Z</time>
      </trkpt>
      <trkpt lat="44.15468" lon="5.00155">
        <ele>253</ele>
        <time>2021-01-24T09:09:16Z</time>
      </trkpt>
      <trkpt lat="44.15452" lon="5.00181">
        <ele>255</ele>
        <time>2021-01-24T09:09:36Z</time>
      </trkpt>
      <trkpt lat="44.15456" lon="5.00203">
        <ele>256</ele>
        <time>2021-01-24T09:09:49Z</time>
      </trkpt>
      <trkpt lat="44.1545" lon="5.00239">
        <ele>257</ele>
        <time>2021-01-24T09:10:10Z</time>
      </trkpt>
      <trkpt lat="44.15436" lon="5.0024">
        <ele>258</ele>
        <time>2021-01-24T09:10:22Z</time>
      </trkpt>
      <trkpt lat="44.1543" lon="5.00225">
        <ele>258</ele>
        <time>2021-01-24T09:10:31Z</time>
      </trkpt>
      <trkpt lat="44.1543" lon="5.00216">
        <ele>258</ele>
        <time>2021-01-24T09:10:37Z</time>
      </trkpt>
      <trkpt lat="44.15407" lon="5.00174">
        <ele>261</ele>
        <time>2021-01-24T09:11:07Z</time>
      </trkpt>
      <trkpt lat="44.15398" lon="5.00163">
        <ele>265</ele>
        <time>2021-01-24T09:11:17Z</time>
      </trkpt>
      <trkpt lat="44.15395" lon="5.00115">
        <ele>267</ele>
        <time>2021-01-24T09:11:44Z</time>
      </trkpt>
      <trkpt lat="44.15406" lon="5.00075">
        <ele>264</ele>
        <time>2021-01-24T09:12:09Z</time>
      </trkpt>
      <trkpt lat="44.15407" lon="5.00058">
        <ele>263</ele>
        <time>2021-01-24T09:12:19Z</time>
      </trkpt>
      <trkpt lat="44.15402" lon="5.00038">
        <ele>264</ele>
        <time>2021-01-24T09:12:31Z</time>
      </trkpt>
      <trkpt lat="44.15377" lon="5.00012">
        <ele>269</ele>
        <time>2021-01-24T09:12:56Z</time>
      </trkpt>
      <trkpt lat="44.15349" lon="5.00013">
        <ele>275</ele>
        <time>2021-01-24T09:13:18Z</time>
      </trkpt>
      <trkpt lat="44.15327" lon="5.00016">
        <ele>280</ele>
        <time>2021-01-24T09:13:36Z</time>
      </trkpt>
      <trkpt lat="44.15325" lon="5.00019">
        <ele>281</ele>
        <time>2021-01-24T09:13:38Z</time>
      </trkpt>
      <trkpt lat="44.15312" lon="5.00017">
        <ele>282</ele>
        <time>2021-01-24T09:13:49Z</time>
      </trkpt>
      <trkpt lat="44.15297" lon="5.00006">
        <ele>282</ele>
        <time>2021-01-24T09:14:02Z</time>
      </trkpt>
      <trkpt lat="44.15294" lon="4.99984">
        <ele>278</ele>
        <time>2021-01-24T09:14:15Z</time>
      </trkpt>
      <trkpt lat="44.15289" lon="4.99977">
        <ele>278</ele>
        <time>2021-01-24T09:14:21Z</time>
      </trkpt>
      <trkpt lat="44.15282" lon="4.99955">
        <ele>274</ele>
        <time>2021-01-24T09:14:35Z</time>
      </trkpt>
      <trkpt lat="44.15279" lon="4.99953">
        <ele>274</ele>
        <time>2021-01-24T09:14:37Z</time>
      </trkpt>
      <trkpt lat="44.15284" lon="4.99948">
        <ele>273</ele>
        <time>2021-01-24T09:14:42Z</time>
      </trkpt>
      <trkpt lat="44.15282" lon="4.9994">
        <ele>272</ele>
        <time>2021-01-24T09:14:47Z</time>
      </trkpt>
      <trkpt lat="44.15274" lon="4.99934">
        <ele>271</ele>
        <time>2021-01-24T09:14:54Z</time>
      </trkpt>
      <trkpt lat="44.15269" lon="4.99934">
        <ele>271</ele>
        <time>2021-01-24T09:14:58Z</time>
      </trkpt>
      <trkpt lat="44.15229" lon="4.99951">
        <ele>273</ele>
        <time>2021-01-24T09:15:32Z</time>
      </trkpt>
      <trkpt lat="44.15202" lon="4.99965">
        <ele>272</ele>
        <time>2021-01-24T09:15:55Z</time>
      </trkpt>
      <trkpt lat="44.15181" lon="4.99994">
        <ele>276</ele>
        <time>2021-01-24T09:16:19Z</time>
      </trkpt>
      <trkpt lat="44.15143" lon="5.00028">
        <ele>277</ele>
        <time>2021-01-24T09:16:55Z</time>
      </trkpt>
      <trkpt lat="44.15116" lon="5.00019">
        <ele>272</ele>
        <time>2021-01-24T09:17:17Z</time>
      </trkpt>
      <trkpt lat="44.15117" lon="5.00015">
        <ele>272</ele>
        <time>2021-01-24T09:17:19Z</time>
      </trkpt>
      <trkpt lat="44.1511" lon="5.00006">
        <ele>269</ele>
        <time>2021-01-24T09:17:27Z</time>
      </trkpt>
      <trkpt lat="44.15105" lon="5.00005">
        <ele>268</ele>
        <time>2021-01-24T09:17:31Z</time>
      </trkpt>
      <trkpt lat="44.151" lon="4.99997">
        <ele>266</ele>
        <time>2021-01-24T09:17:37Z</time>
      </trkpt>
      <trkpt lat="44.15087" lon="4.99994">
        <ele>264</ele>
        <time>2021-01-24T09:17:48Z</time>
      </trkpt>
      <trkpt lat="44.1507" lon="4.99996">
        <ele>261</ele>
        <time>2021-01-24T09:18:01Z</time>
      </trkpt>
      <trkpt lat="44.15062" lon="5.00003">
        <ele>260</ele>
        <time>2021-01-24T09:18:09Z</time>
      </trkpt>
      <trkpt lat="44.1505" lon="5.0003">
        <ele>262</ele>
        <time>2021-01-24T09:18:27Z</time>
      </trkpt>
      <trkpt lat="44.15037" lon="5.00049">
        <ele>262</ele>
        <time>2021-01-24T09:18:42Z</time>
      </trkpt>
      <trkpt lat="44.15039" lon="5.00065">
        <ele>266</ele>
        <time>2021-01-24T09:18:52Z</time>
      </trkpt>
      <trkpt lat="44.15035" lon="5.00076">
        <ele>267</ele>
        <time>2021-01-24T09:18:59Z</time>
      </trkpt>
      <trkpt lat="44.15032" lon="5.00071">
        <ele>266</ele>
        <time>2021-01-24T09:19:02Z</time>
      </trkpt>
      <trkpt lat="44.15008" lon="5.00083">
        <ele>263</ele>
        <time>2021-01-24T09:19:23Z</time>
      </trkpt>
      <trkpt lat="44.14933" lon="5.00145">
        <ele>263</ele>
        <time>2021-01-24T09:20:33Z</time>
      </trkpt>
      <trkpt lat="44.14964" lon="5.00209">
        <ele>277</ele>
        <time>2021-01-24T09:21:17Z</time>
      </trkpt>
      <trkpt lat="44.14947" lon="5.00255">
        <ele>280</ele>
        <time>2021-01-24T09:21:47Z</time>
      </trkpt>
      <trkpt lat="44.14938" lon="5.00264">
        <ele>280</ele>
        <time>2021-01-24T09:21:56Z</time>
      </trkpt>
      <trkpt lat="44.14912" lon="5.00247">
        <ele>273</ele>
        <time>2021-01-24T09:22:19Z</time>
      </trkpt>
      <trkpt lat="44.14887" lon="5.00263">
        <ele>273</ele>
        <time>2021-01-24T09:22:41Z</time>
      </trkpt>
      <trkpt lat="44.14859" lon="5.00301">
        <ele>276</ele>
        <time>2021-01-24T09:23:12Z</time>
      </trkpt>
      <trkpt lat="44.14838" lon="5.0032">
        <ele>278</ele>
        <time>2021-01-24T09:23:32Z</time>
      </trkpt>
      <trkpt lat="44.14807" lon="5.00444">
        <ele>287</ele>
        <time>2021-01-24T09:24:47Z</time>
      </trkpt>
      <trkpt lat="44.14801" lon="5.00445">
        <ele>286</ele>
        <time>2021-01-24T09:24:52Z</time>
      </trkpt>
      <trkpt lat="44.14794" lon="5.00454">
        <ele>286</ele>
        <time>2021-01-24T09:25:00Z</time>
      </trkpt>
      <trkpt lat="44.14792" lon="5.00464">
        <ele>286</ele>
        <time>2021-01-24T09:25:06Z</time>
      </trkpt>
      <trkpt lat="44.14797" lon="5.00493">
        <ele>291</ele>
        <time>2021-01-24T09:25:23Z</time>
      </trkpt>
      <trkpt lat="44.14822" lon="5.00581">
        <ele>302</ele>
        <time>2021-01-24T09:26:17Z</time>
      </trkpt>
      <trkpt lat="44.14812" lon="5.00604">
        <ele>304</ele>
        <time>2021-01-24T09:26:33Z</time>
      </trkpt>
      <trkpt lat="44.14789" lon="5.00641">
        <ele>309</ele>
        <time>2021-01-24T09:27:01Z</time>
      </trkpt>
      <trkpt lat="44.14781" lon="5.00642">
        <ele>309</ele>
        <time>2021-01-24T09:27:07Z</time>
      </trkpt>
      <trkpt lat="44.14755" lon="5.00634">
        <ele>308</ele>
        <time>2021-01-24T09:27:29Z</time>
      </trkpt>
      <trkpt lat="44.14738" lon="5.00635">
        <ele>307</ele>
        <time>2021-01-24T09:27:42Z</time>
      </trkpt>
      <trkpt lat="44.14722" lon="5.0064">
        <ele>308</ele>
        <time>2021-01-24T09:27:55Z</time>
      </trkpt>
      <trkpt lat="44.14703" lon="5.00652">
        <ele>309</ele>
        <time>2021-01-24T09:28:12Z</time>
      </trkpt>
      <trkpt lat="44.14683" lon="5.0066">
        <ele>310</ele>
        <time>2021-01-24T09:28:29Z</time>
      </trkpt>
      <trkpt lat="44.14671" lon="5.00681">
        <ele>312</ele>
        <time>2021-01-24T09:28:44Z</time>
      </trkpt>
      <trkpt lat="44.14662" lon="5.00712">
        <ele>313</ele>
        <time>2021-01-24T09:29:03Z</time>
      </trkpt>
      <trkpt lat="44.14655" lon="5.00755">
        <ele>316</ele>
        <time>2021-01-24T09:29:29Z</time>
      </trkpt>
      <trkpt lat="44.14646" lon="5.00772">
        <ele>317</ele>
        <time>2021-01-24T09:29:41Z</time>
      </trkpt>
      <trkpt lat="44.14627" lon="5.00794">
        <ele>315</ele>
        <time>2021-01-24T09:30:01Z</time>
      </trkpt>
      <trkpt lat="44.14625" lon="5.00803">
        <ele>316</ele>
        <time>2021-01-24T09:30:06Z</time>
      </trkpt>
      <trkpt lat="44.14611" lon="5.00826">
        <ele>315</ele>
        <time>2021-01-24T09:30:23Z</time>
      </trkpt>
      <trkpt lat="44.14622" lon="5.00884">
        <ele>320</ele>
        <time>2021-01-24T09:30:58Z</time>
      </trkpt>
      <trkpt lat="44.14623" lon="5.0093">
        <ele>323</ele>
        <time>2021-01-24T09:31:24Z</time>
      </trkpt>
      <trkpt lat="44.14603" lon="5.00966">
        <ele>320</ele>
        <time>2021-01-24T09:31:51Z</time>
      </trkpt>
      <trkpt lat="44.14581" lon="5.01014">
        <ele>319</ele>
        <time>2021-01-24T09:32:23Z</time>
      </trkpt>
      <trkpt lat="44.14549" lon="5.01063">
        <ele>317</ele>
        <time>2021-01-24T09:33:01Z</time>
      </trkpt>
      <trkpt lat="44.14549" lon="5.01088">
        <ele>318</ele>
        <time>2021-01-24T09:33:16Z</time>
      </trkpt>
      <trkpt lat="44.14583" lon="5.01094">
        <ele>321</ele>
        <time>2021-01-24T09:33:43Z</time>
      </trkpt>
      <trkpt lat="44.1461" lon="5.01102">
        <ele>324</ele>
        <time>2021-01-24T09:34:05Z</time>
      </trkpt>
      <trkpt lat="44.14656" lon="5.0113">
        <ele>326</ele>
        <time>2021-01-24T09:34:45Z</time>
      </trkpt>
      <trkpt lat="44.14685" lon="5.01171">
        <ele>323</ele>
        <time>2021-01-24T09:35:19Z</time>
      </trkpt>
      <trkpt lat="44.14708" lon="5.01214">
        <ele>327</ele>
        <time>2021-01-24T09:35:49Z</time>
      </trkpt>
      <trkpt lat="44.14706" lon="5.0125">
        <ele>330</ele>
        <time>2021-01-24T09:36:10Z</time>
      </trkpt>
      <trkpt lat="44.1472" lon="5.01291">
        <ele>335</ele>
        <time>2021-01-24T09:36:36Z</time>
      </trkpt>
      <trkpt lat="44.14735" lon="5.0132">
        <ele>337</ele>
        <time>2021-01-24T09:36:57Z</time>
      </trkpt>
      <trkpt lat="44.14751" lon="5.01361">
        <ele>342</ele>
        <time>2021-01-24T09:37:24Z</time>
      </trkpt>
      <trkpt lat="44.14761" lon="5.014">
        <ele>351</ele>
        <time>2021-01-24T09:37:47Z</time>
      </trkpt>
      <trkpt lat="44.14766" lon="5.01439">
        <ele>359</ele>
        <time>2021-01-24T09:38:10Z</time>
      </trkpt>
      <trkpt lat="44.14747" lon="5.01486">
        <ele>371</ele>
        <time>2021-01-24T09:38:41Z</time>
      </trkpt>
      <trkpt lat="44.14738" lon="5.0153">
        <ele>379</ele>
        <time>2021-01-24T09:39:07Z</time>
      </trkpt>
      <trkpt lat="44.14722" lon="5.01563">
        <ele>381</ele>
        <time>2021-01-24T09:39:30Z</time>
      </trkpt>
      <trkpt lat="44.14696" lon="5.01658">
        <ele>379</ele>
        <time>2021-01-24T09:40:29Z</time>
      </trkpt>
      <trkpt lat="44.14692" lon="5.01679">
        <ele>378</ele>
        <time>2021-01-24T09:40:41Z</time>
      </trkpt>
      <trkpt lat="44.14689" lon="5.01766">
        <ele>383</ele>
        <time>2021-01-24T09:41:31Z</time>
      </trkpt>
      <trkpt lat="44.14686" lon="5.01781">
        <ele>384</ele>
        <time>2021-01-24T09:41:40Z</time>
      </trkpt>
      <trkpt lat="44.1468" lon="5.01794">
        <ele>384</ele>
        <time>2021-01-24T09:41:49Z</time>
      </trkpt>
      <trkpt lat="44.1467" lon="5.01807">
        <ele>382</ele>
        <time>2021-01-24T09:42:00Z</time>
      </trkpt>
      <trkpt lat="44.14629" lon="5.01829">
        <ele>377</ele>
        <time>2021-01-24T09:42:35Z</time>
      </trkpt>
      <trkpt lat="44.14578" lon="5.01849">
        <ele>369</ele>
        <time>2021-01-24T09:43:18Z</time>
      </trkpt>
      <trkpt lat="44.14572" lon="5.01853">
        <ele>367</ele>
        <time>2021-01-24T09:43:23Z</time>
      </trkpt>
      <trkpt lat="44.14569" lon="5.0186">
        <ele>367</ele>
        <time>2021-01-24T09:43:28Z</time>
      </trkpt>
      <trkpt lat="44.14569" lon="5.01869">
        <ele>368</ele>
        <time>2021-01-24T09:43:33Z</time>
      </trkpt>
      <trkpt lat="44.14573" lon="5.01883">
        <ele>370</ele>
        <time>2021-01-24T09:43:41Z</time>
      </trkpt>
      <trkpt lat="44.14591" lon="5.01913">
        <ele>378</ele>
        <time>2021-01-24T09:44:04Z</time>
      </trkpt>
      <trkpt lat="44.14595" lon="5.01932">
        <ele>379</ele>
        <time>2021-01-24T09:44:15Z</time>
      </trkpt>
      <trkpt lat="44.14604" lon="5.02047">
        <ele>379</ele>
        <time>2021-01-24T09:45:22Z</time>
      </trkpt>
      <trkpt lat="44.14618" lon="5.0209">
        <ele>386</ele>
        <time>2021-01-24T09:45:49Z</time>
      </trkpt>
      <trkpt lat="44.14618" lon="5.02103">
        <ele>387</ele>
        <time>2021-01-24T09:45:56Z</time>
      </trkpt>
      <trkpt lat="44.14614" lon="5.02115">
        <ele>386</ele>
        <time>2021-01-24T09:46:04Z</time>
      </trkpt>
      <trkpt lat="44.14602" lon="5.02135">
        <ele>385</ele>
        <time>2021-01-24T09:46:19Z</time>
      </trkpt>
      <trkpt lat="44.14592" lon="5.02141">
        <ele>382</ele>
        <time>2021-01-24T09:46:28Z</time>
      </trkpt>
      <trkpt lat="44.14577" lon="5.02143">
        <ele>379</ele>
        <time>2021-01-24T09:46:40Z</time>
      </trkpt>
      <trkpt lat="44.14555" lon="5.02141">
        <ele>375</ele>
        <time>2021-01-24T09:46:57Z</time>
      </trkpt>
      <trkpt lat="44.14545" lon="5.02147">
        <ele>374</ele>
        <time>2021-01-24T09:47:06Z</time>
      </trkpt>
      <trkpt lat="44.14537" lon="5.02157">
        <ele>374</ele>
        <time>2021-01-24T09:47:15Z</time>
      </trkpt>
      <trkpt lat="44.14523" lon="5.02201">
        <ele>373</ele>
        <time>2021-01-24T09:47:42Z</time>
      </trkpt>
      <trkpt lat="44.1452" lon="5.02218">
        <ele>372</ele>
        <time>2021-01-24T09:47:52Z</time>
      </trkpt>
      <trkpt lat="44.14519" lon="5.02248">
        <ele>373</ele>
        <time>2021-01-24T09:48:10Z</time>
      </trkpt>
      <trkpt lat="44.14522" lon="5.02302">
        <ele>374</ele>
        <time>2021-01-24T09:48:41Z</time>
      </trkpt>
      <trkpt lat="44.14518" lon="5.02319">
        <ele>373</ele>
        <time>2021-01-24T09:48:51Z</time>
      </trkpt>
      <trkpt lat="44.14513" lon="5.02323">
        <ele>372</ele>
        <time>2021-01-24T09:48:56Z</time>
      </trkpt>
      <trkpt lat="44.14507" lon="5.02322">
        <ele>370</ele>
        <time>2021-01-24T09:49:00Z</time>
      </trkpt>
      <trkpt lat="44.14503" lon="5.02317">
        <ele>370</ele>
        <time>2021-01-24T09:49:05Z</time>
      </trkpt>
      <trkpt lat="44.14491" lon="5.02288">
        <ele>367</ele>
        <time>2021-01-24T09:49:24Z</time>
      </trkpt>
      <trkpt lat="44.14482" lon="5.02277">
        <ele>365</ele>
        <time>2021-01-24T09:49:34Z</time>
      </trkpt>
      <trkpt lat="44.14472" lon="5.02269">
        <ele>363</ele>
        <time>2021-01-24T09:49:43Z</time>
      </trkpt>
      <trkpt lat="44.14464" lon="5.02266">
        <ele>362</ele>
        <time>2021-01-24T09:49:49Z</time>
      </trkpt>
      <trkpt lat="44.14379" lon="5.02292">
        <ele>351</ele>
        <time>2021-01-24T09:50:59Z</time>
      </trkpt>
      <trkpt lat="44.14365" lon="5.02292">
        <ele>350</ele>
        <time>2021-01-24T09:51:10Z</time>
      </trkpt>
      <trkpt lat="44.14357" lon="5.02289">
        <ele>349</ele>
        <time>2021-01-24T09:51:17Z</time>
      </trkpt>
      <trkpt lat="44.14352" lon="5.02276">
        <ele>348</ele>
        <time>2021-01-24T09:51:25Z</time>
      </trkpt>
      <trkpt lat="44.1436" lon="5.02229">
        <ele>348</ele>
        <time>2021-01-24T09:51:53Z</time>
      </trkpt>
      <trkpt lat="44.14356" lon="5.02218">
        <ele>348</ele>
        <time>2021-01-24T09:52:00Z</time>
      </trkpt>
      <trkpt lat="44.14273" lon="5.02135">
        <ele>338</ele>
        <time>2021-01-24T09:53:22Z</time>
      </trkpt>
      <trkpt lat="44.14253" lon="5.02112">
        <ele>335</ele>
        <time>2021-01-24T09:53:43Z</time>
      </trkpt>
      <trkpt lat="44.14206" lon="5.02032">
        <ele>328</ele>
        <time>2021-01-24T09:54:42Z</time>
      </trkpt>
      <trkpt lat="44.14195" lon="5.02016">
        <ele>326</ele>
        <time>2021-01-24T09:54:55Z</time>
      </trkpt>
      <trkpt lat="44.14182" lon="5.02005">
        <ele>324</ele>
        <time>2021-01-24T09:55:07Z</time>
      </trkpt>
      <trkpt lat="44.14146" lon="5.01993">
        <ele>320</ele>
        <time>2021-01-24T09:55:37Z</time>
      </trkpt>
      <trkpt lat="44.14109" lon="5.01999">
        <ele>315</ele>
        <time>2021-01-24T09:56:07Z</time>
      </trkpt>
      <trkpt lat="44.14098" lon="5.01997">
        <ele>314</ele>
        <time>2021-01-24T09:56:15Z</time>
      </trkpt>
      <trkpt lat="44.1407" lon="5.01978">
        <ele>311</ele>
        <time>2021-01-24T09:56:40Z</time>
      </trkpt>
      <trkpt lat="44.14017" lon="5.01966">
        <ele>303</ele>
        <time>2021-01-24T09:57:23Z</time>
      </trkpt>
      <trkpt lat="44.14006" lon="5.01959">
        <ele>301</ele>
        <time>2021-01-24T09:57:33Z</time>
      </trkpt>
      <trkpt lat="44.13991" lon="5.01944">
        <ele>300</ele>
        <time>2021-01-24T09:57:48Z</time>
      </trkpt>
      <trkpt lat="44.13973" lon="5.01932">
        <ele>299</ele>
        <time>2021-01-24T09:58:04Z</time>
      </trkpt>
      <trkpt lat="44.13956" lon="5.01926">
        <ele>298</ele>
        <time>2021-01-24T09:58:18Z</time>
      </trkpt>
      <trkpt lat="44.1393" lon="5.01926">
        <ele>295</ele>
        <time>2021-01-24T09:58:39Z</time>
      </trkpt>
      <trkpt lat="44.13847" lon="5.01942">
        <ele>287</ele>
        <time>2021-01-24T09:59:46Z</time>
      </trkpt>
      <trkpt lat="44.13693" lon="5.01983">
        <ele>272</ele>
        <time>2021-01-24T10:01:51Z</time>
      </trkpt>
      <trkpt lat="44.13681" lon="5.01981">
        <ele>271</ele>
        <time>2021-01-24T10:02:01Z</time>
      </trkpt>
      <trkpt lat="44.1367" lon="5.01974">
        <ele>270</ele>
        <time>2021-01-24T10:02:11Z</time>
      </trkpt>
      <trkpt lat="44.13666" lon="5.01962">
        <ele>271</ele>
        <time>2021-01-24T10:02:18Z</time>
      </trkpt>
      <trkpt lat="44.13662" lon="5.01927">
        <ele>272</ele>
        <time>2021-01-24T10:02:39Z</time>
      </trkpt>
      <trkpt lat="44.13645" lon="5.01886">
        <ele>264</ele>
        <time>2021-01-24T10:03:06Z</time>
      </trkpt>
      <trkpt lat="44.13644" lon="5.01873">
        <ele>263</ele>
        <time>2021-01-24T10:03:13Z</time>
      </trkpt>
      <trkpt lat="44.13647" lon="5.01862">
        <ele>263</ele>
        <time>2021-01-24T10:03:20Z</time>
      </trkpt>
      <trkpt lat="44.13682" lon="5.01824">
        <ele>267</ele>
        <time>2021-01-24T10:03:56Z</time>
      </trkpt>
      <trkpt lat="44.13692" lon="5.01807">
        <ele>265</ele>
        <time>2021-01-24T10:04:08Z</time>
      </trkpt>
      <trkpt lat="44.13696" lon="5.01782">
        <ele>261</ele>
        <time>2021-01-24T10:04:23Z</time>
      </trkpt>
      <trkpt lat="44.13702" lon="5.01763">
        <ele>258</ele>
        <time>2021-01-24T10:04:35Z</time>
      </trkpt>
      <trkpt lat="44.13712" lon="5.01749">
        <ele>257</ele>
        <time>2021-01-24T10:04:46Z</time>
      </trkpt>
      <trkpt lat="44.13731" lon="5.01731">
        <ele>255</ele>
        <time>2021-01-24T10:05:05Z</time>
      </trkpt>
      <trkpt lat="44.13777" lon="5.01698">
        <ele>250</ele>
        <time>2021-01-24T10:05:46Z</time>
      </trkpt>
      <trkpt lat="44.13785" lon="5.01696">
        <ele>249</ele>
        <time>2021-01-24T10:05:53Z</time>
      </trkpt>
      <trkpt lat="44.13795" lon="5.01697">
        <ele>250</ele>
        <time>2021-01-24T10:06:01Z</time>
      </trkpt>
      <trkpt lat="44.13822" lon="5.01711">
        <ele>255</ele>
        <time>2021-01-24T10:06:24Z</time>
      </trkpt>
      <trkpt lat="44.13827" lon="5.01711">
        <ele>255</ele>
        <time>2021-01-24T10:06:28Z</time>
      </trkpt>
      <trkpt lat="44.13842" lon="5.01704">
        <ele>255</ele>
        <time>2021-01-24T10:06:40Z</time>
      </trkpt>
      <trkpt lat="44.13875" lon="5.01676">
        <ele>251</ele>
        <time>2021-01-24T10:07:11Z</time>
      </trkpt>
      <trkpt lat="44.13894" lon="5.01663">
        <ele>249</ele>
        <time>2021-01-24T10:07:28Z</time>
      </trkpt>
      <trkpt lat="44.13956" lon="5.01639">
        <ele>248</ele>
        <time>2021-01-24T10:08:20Z</time>
      </trkpt>
      <trkpt lat="44.1399" lon="5.01623">
        <ele>246</ele>
        <time>2021-01-24T10:08:49Z</time>
      </trkpt>
      <trkpt lat="44.14009" lon="5.0161">
        <ele>244</ele>
        <time>2021-01-24T10:09:05Z</time>
      </trkpt>
      <trkpt lat="44.14025" lon="5.01592">
        <ele>241</ele>
        <time>2021-01-24T10:09:22Z</time>
      </trkpt>
      <trkpt lat="44.14035" lon="5.01585">
        <ele>240</ele>
        <time>2021-01-24T10:09:31Z</time>
      </trkpt>
      <trkpt lat="44.14076" lon="5.0157">
        <ele>242</ele>
        <time>2021-01-24T10:10:05Z</time>
      </trkpt>
      <trkpt lat="44.14082" lon="5.01561">
        <ele>243</ele>
        <time>2021-01-24T10:10:12Z</time>
      </trkpt>
      <trkpt lat="44.14085" lon="5.01539">
        <ele>244</ele>
        <time>2021-01-24T10:10:25Z</time>
      </trkpt>
      <trkpt lat="44.14104" lon="5.01488">
        <ele>250</ele>
        <time>2021-01-24T10:10:58Z</time>
      </trkpt>
      <trkpt lat="44.14128" lon="5.01467">
        <ele>254</ele>
        <time>2021-01-24T10:11:20Z</time>
      </trkpt>
      <trkpt lat="44.1413" lon="5.01455">
        <ele>255</ele>
        <time>2021-01-24T10:11:28Z</time>
      </trkpt>
      <trkpt lat="44.14124" lon="5.01453">
        <ele>256</ele>
        <time>2021-01-24T10:11:32Z</time>
      </trkpt>
      <trkpt lat="44.14108" lon="5.01456">
        <ele>255</ele>
        <time>2021-01-24T10:11:45Z</time>
      </trkpt>
      <trkpt lat="44.14028" lon="5.01494">
        <ele>249</ele>
        <time>2021-01-24T10:12:53Z</time>
      </trkpt>
      <trkpt lat="44.14003" lon="5.015">
        <ele>249</ele>
        <time>2021-01-24T10:13:13Z</time>
      </trkpt>
      <trkpt lat="44.13956" lon="5.01523">
        <ele>245</ele>
        <time>2021-01-24T10:13:53Z</time>
      </trkpt>
      <trkpt lat="44.13941" lon="5.01528">
        <ele>244</ele>
        <time>2021-01-24T10:14:06Z</time>
      </trkpt>
      <trkpt lat="44.13923" lon="5.01528">
        <ele>244</ele>
        <time>2021-01-24T10:14:20Z</time>
      </trkpt>
      <trkpt lat="44.13882" lon="5.0151">
        <ele>243</ele>
        <time>2021-01-24T10:14:54Z</time>
      </trkpt>
      <trkpt lat="44.13774" lon="5.01513">
        <ele>231</ele>
        <time>2021-01-24T10:16:21Z</time>
      </trkpt>
      <trkpt lat="44.13762" lon="5.01515">
        <ele>230</ele>
        <time>2021-01-24T10:16:31Z</time>
      </trkpt>
      <trkpt lat="44.13729" lon="5.01529">
        <ele>224</ele>
        <time>2021-01-24T10:16:58Z</time>
      </trkpt>
      <trkpt lat="44.1371" lon="5.01532">
        <ele>222</ele>
        <time>2021-01-24T10:17:14Z</time>
      </trkpt>
      <trkpt lat="44.13669" lon="5.01525">
        <ele>218</ele>
        <time>2021-01-24T10:17:47Z</time>
      </trkpt>
      <trkpt lat="44.13662" lon="5.0152">
        <ele>218</ele>
        <time>2021-01-24T10:17:53Z</time>
      </trkpt>
      <trkpt lat="44.13657" lon="5.01512">
        <ele>218</ele>
        <time>2021-01-24T10:17:59Z</time>
      </trkpt>
      <trkpt lat="44.13652" lon="5.0149">
        <ele>219</ele>
        <time>2021-01-24T10:18:12Z</time>
      </trkpt>
      <trkpt lat="44.13642" lon="5.01473">
        <ele>219</ele>
        <time>2021-01-24T10:18:25Z</time>
      </trkpt>
      <trkpt lat="44.13626" lon="5.01474">
        <ele>217</ele>
        <time>2021-01-24T10:18:38Z</time>
      </trkpt>
      <trkpt lat="44.13618" lon="5.01479">
        <ele>215</ele>
        <time>2021-01-24T10:18:45Z</time>
      </trkpt>
      <trkpt lat="44.13607" lon="5.01482">
        <ele>213</ele>
        <time>2021-01-24T10:18:54Z</time>
      </trkpt>
      <trkpt lat="44.13575" lon="5.01482">
        <ele>207</ele>
        <time>2021-01-24T10:19:19Z</time>
      </trkpt>
      <trkpt lat="44.13566" lon="5.0148">
        <ele>206</ele>
        <time>2021-01-24T10:19:27Z</time>
      </trkpt>
      <trkpt lat="44.1356" lon="5.01473">
        <ele>205</ele>
        <time>2021-01-24T10:19:33Z</time>
      </trkpt>
      <trkpt lat="44.1351" lon="5.01379">
        <ele>202</ele>
        <time>2021-01-24T10:20:40Z</time>
      </trkpt>
      <trkpt lat="44.13505" lon="5.01362">
        <ele>200</ele>
        <time>2021-01-24T10:20:51Z</time>
      </trkpt>
      <trkpt lat="44.13504" lon="5.01327">
        <ele>199</ele>
        <time>2021-01-24T10:21:11Z</time>
      </trkpt>
      <trkpt lat="44.13515" lon="5.01277">
        <ele>196</ele>
        <time>2021-01-24T10:21:41Z</time>
      </trkpt>
      <trkpt lat="44.13529" lon="5.011">
        <ele>186</ele>
        <time>2021-01-24T10:23:23Z</time>
      </trkpt>
      <trkpt lat="44.13554" lon="5.00988">
        <ele>182</ele>
        <time>2021-01-24T10:24:31Z</time>
      </trkpt>
      <trkpt lat="44.1356" lon="5.00974">
        <ele>182</ele>
        <time>2021-01-24T10:24:40Z</time>
      </trkpt>
      <trkpt lat="44.13576" lon="5.00955">
        <ele>181</ele>
        <time>2021-01-24T10:24:57Z</time>
      </trkpt>
      <trkpt lat="44.13579" lon="5.00947">
        <ele>181</ele>
        <time>2021-01-24T10:25:02Z</time>
      </trkpt>
      <trkpt lat="44.13583" lon="5.00921">
        <ele>179</ele>
        <time>2021-01-24T10:25:17Z</time>
      </trkpt>
      <trkpt lat="44.13594" lon="5.00883">
        <ele>178</ele>
        <time>2021-01-24T10:25:41Z</time>
      </trkpt>
      <trkpt lat="44.13602" lon="5.0081">
        <ele>179</ele>
        <time>2021-01-24T10:26:23Z</time>
      </trkpt>
      <trkpt lat="44.13612" lon="5.00757">
        <ele>182</ele>
        <time>2021-01-24T10:26:55Z</time>
      </trkpt>
      <trkpt lat="44.13615" lon="5.00724">
        <ele>181</ele>
        <time>2021-01-24T10:27:14Z</time>
      </trkpt>
      <trkpt lat="44.13623" lon="5.00722">
        <ele>182</ele>
        <time>2021-01-24T10:27:20Z</time>
      </trkpt>
      <trkpt lat="44.13621" lon="5.00724">
        <ele>182</ele>
        <time>2021-01-24T10:27:22Z</time>
      </trkpt>
      <trkpt lat="44.13619" lon="5.00709">
        <ele>181</ele>
        <time>2021-01-24T10:27:31Z</time>
      </trkpt>
      <trkpt lat="44.1362" lon="5.00617">
        <ele>173</ele>
        <time>2021-01-24T10:28:24Z</time>
      </trkpt>
      <trkpt lat="44.13591" lon="5.00535">
        <ele>161</ele>
        <time>2021-01-24T10:29:17Z</time>
      </trkpt>
      <trkpt lat="44.13584" lon="5.00501">
        <ele>155</ele>
        <time>2021-01-24T10:29:37Z</time>
      </trkpt>
      <trkpt lat="44.13567" lon="5.0044">
        <ele>151</ele>
        <time>2021-01-24T10:30:14Z</time>
      </trkpt>
      <trkpt lat="44.1357" lon="5.00399">
        <ele>152</ele>
        <time>2021-01-24T10:30:38Z</time>
      </trkpt>
      <trkpt lat="44.13581" lon="5.00379">
        <ele>155</ele>
        <time>2021-01-24T10:30:53Z</time>
      </trkpt>
      <trkpt lat="44.13598" lon="5.00375">
        <ele>157</ele>
        <time>2021-01-24T10:31:06Z</time>
      </trkpt>
      <trkpt lat="44.13622" lon="5.0038">
        <ele>158</ele>
        <time>2021-01-24T10:31:26Z</time>
      </trkpt>
      <trkpt lat="44.13651" lon="5.00394">
        <ele>160</ele>
        <time>2021-01-24T10:31:50Z</time>
      </trkpt>
      <trkpt lat="44.13675" lon="5.00392">
        <ele>163</ele>
        <time>2021-01-24T10:32:10Z</time>
      </trkpt>
      <trkpt lat="44.13698" lon="5.00377">
        <ele>167</ele>
        <time>2021-01-24T10:32:30Z</time>
      </trkpt>
      <trkpt lat="44.13715" lon="5.00351">
        <ele>170</ele>
        <time>2021-01-24T10:32:50Z</time>
      </trkpt>
      <trkpt lat="44.13722" lon="5.00323">
        <ele>170</ele>
        <time>2021-01-24T10:33:07Z</time>
      </trkpt>
      <trkpt lat="44.13732" lon="5.0021">
        <ele>162</ele>
        <time>2021-01-24T10:34:13Z</time>
      </trkpt>
      <trkpt lat="44.13763" lon="5.00034">
        <ele>146</ele>
        <time>2021-01-24T10:35:57Z</time>
      </trkpt>
      <trkpt lat="44.13771" lon="4.99955">
        <ele>142</ele>
        <time>2021-01-24T10:36:43Z</time>
      </trkpt>
      <trkpt lat="44.13801" lon="4.99845">
        <ele>138</ele>
        <time>2021-01-24T10:37:50Z</time>
      </trkpt>
      <trkpt lat="44.13801" lon="4.99835">
        <ele>138</ele>
        <time>2021-01-24T10:37:56Z</time>
      </trkpt>
      <trkpt lat="44.13792" lon="4.99834">
        <ele>137</ele>
        <time>2021-01-24T10:38:03Z</time>
      </trkpt>
      <trkpt lat="44.13782" lon="4.99841">
        <ele>137</ele>
        <time>2021-01-24T10:38:12Z</time>
      </trkpt>
      <trkpt lat="44.13761" lon="4.99862">
        <ele>136</ele>
        <time>2021-01-24T10:38:33Z</time>
      </trkpt>
      <trkpt lat="44.13695" lon="4.99915">
        <ele>136</ele>
        <time>2021-01-24T10:39:34Z</time>
      </trkpt>
      <trkpt lat="44.1365" lon="4.99958">
        <ele>137</ele>
        <time>2021-01-24T10:40:18Z</time>
      </trkpt>
      <trkpt lat="44.13629" lon="4.99969">
        <ele>137</ele>
        <time>2021-01-24T10:40:36Z</time>
      </trkpt>
      <trkpt lat="44.13616" lon="4.9995">
        <ele>136</ele>
        <time>2021-01-24T10:40:51Z</time>
      </trkpt>
      <trkpt lat="44.13573" lon="4.99843">
        <ele>142</ele>
        <time>2021-01-24T10:42:01Z</time>
      </trkpt>
      <trkpt lat="44.13572" lon="4.99829">
        <ele>143</ele>
        <time>2021-01-24T10:42:09Z</time>
      </trkpt>
      <trkpt lat="44.13574" lon="4.99822">
        <ele>143</ele>
        <time>2021-01-24T10:42:14Z</time>
      </trkpt>
      <trkpt lat="44.13591" lon="4.99792">
        <ele>141</ele>
        <time>2021-01-24T10:42:36Z</time>
      </trkpt>
      <trkpt lat="44.13618" lon="4.99729">
        <ele>137</ele>
        <time>2021-01-24T10:43:18Z</time>
      </trkpt>
      <trkpt lat="44.13622" lon="4.99692">
        <ele>135</ele>
        <time>2021-01-24T10:43:39Z</time>
      </trkpt>
      <trkpt lat="44.13619" lon="4.99655">
        <ele>133</ele>
        <time>2021-01-24T10:44:01Z</time>
      </trkpt>
      <trkpt lat="44.13601" lon="4.99579">
        <ele>126</ele>
        <time>2021-01-24T10:44:47Z</time>
      </trkpt>
      <trkpt lat="44.13593" lon="4.99568">
        <ele>125</ele>
        <time>2021-01-24T10:44:56Z</time>
      </trkpt>
      <trkpt lat="44.13588" lon="4.99566">
        <ele>125</ele>
        <time>2021-01-24T10:45:00Z</time>
      </trkpt>
      <trkpt lat="44.13535" lon="4.99573">
        <ele>125</ele>
        <time>2021-01-24T10:45:42Z</time>
      </trkpt>
      <trkpt lat="44.13509" lon="4.99562">
        <ele>124</ele>
        <time>2021-01-24T10:46:04Z</time>
      </trkpt>
      <trkpt lat="44.13486" lon="4.99558">
        <ele>123</ele>
        <time>2021-01-24T10:46:23Z</time>
      </trkpt>
      <trkpt lat="44.1346" lon="4.99547">
        <ele>121</ele>
        <time>2021-01-24T10:46:44Z</time>
      </trkpt>
      <trkpt lat="44.13435" lon="4.9953">
        <ele>119</ele>
        <time>2021-01-24T10:47:07Z</time>
      </trkpt>
      <trkpt lat="44.13405" lon="4.99487">
        <ele>116</ele>
        <time>2021-01-24T10:47:41Z</time>
      </trkpt>
      <trkpt lat="44.13391" lon="4.99478">
        <ele>115</ele>
        <time>2021-01-24T10:47:53Z</time>
      </trkpt>
      <trkpt lat="44.13397" lon="4.99441">
        <ele>114</ele>
        <time>2021-01-24T10:48:15Z</time>
      </trkpt>
      <trkpt lat="44.13387" lon="4.99415">
        <ele>112</ele>
        <time>2021-01-24T10:48:32Z</time>
      </trkpt>
      <trkpt lat="44.13418" lon="4.99388">
        <ele>112</ele>
        <time>2021-01-24T10:49:02Z</time>
      </trkpt>
      <trkpt lat="44.13439" lon="4.99373">
        <ele>113</ele>
        <time>2021-01-24T10:49:20Z</time>
      </trkpt>
      <trkpt lat="44.13467" lon="4.99362">
        <ele>116</ele>
        <time>2021-01-24T10:49:44Z</time>
      </trkpt>
      <trkpt lat="44.13478" lon="4.9936">
        <ele>117</ele>
        <time>2021-01-24T10:49:53Z</time>
      </trkpt>
      <trkpt lat="44.13487" lon="4.99349">
        <ele>118</ele>
        <time>2021-01-24T10:50:02Z</time>
      </trkpt>
      <trkpt lat="44.13483" lon="4.9933">
        <ele>116</ele>
        <time>2021-01-24T10:50:14Z</time>
      </trkpt>
      <trkpt lat="44.1349" lon="4.99307">
        <ele>116</ele>
        <time>2021-01-24T10:50:28Z</time>
      </trkpt>
      <trkpt lat="44.13512" lon="4.99292">
        <ele>118</ele>
        <time>2021-01-24T10:50:48Z</time>
      </trkpt>
      <trkpt lat="44.13564" lon="4.99244">
        <ele>121</ele>
        <time>2021-01-24T10:51:37Z</time>
      </trkpt>
      <trkpt lat="44.13599" lon="4.99197">
        <ele>121</ele>
        <time>2021-01-24T10:52:16Z</time>
      </trkpt>
      <trkpt lat="44.13608" lon="4.99188">
        <ele>121</ele>
        <time>2021-01-24T10:52:25Z</time>
      </trkpt>
      <trkpt lat="44.13633" lon="4.9917">
        <ele>122</ele>
        <time>2021-01-24T10:52:48Z</time>
      </trkpt>
      <trkpt lat="44.13649" lon="4.99151">
        <ele>122</ele>
        <time>2021-01-24T10:53:05Z</time>
      </trkpt>
      <trkpt lat="44.1374" lon="4.99074">
        <ele>126</ele>
        <time>2021-01-24T10:54:30Z</time>
      </trkpt>
      <trkpt lat="44.13755" lon="4.99057">
        <ele>126</ele>
        <time>2021-01-24T10:54:45Z</time>
      </trkpt>
      <trkpt lat="44.13834" lon="4.98994">
        <ele>128</ele>
        <time>2021-01-24T10:55:58Z</time>
      </trkpt>
      <trkpt lat="44.13865" lon="4.98956">
        <ele>126</ele>
        <time>2021-01-24T10:56:31Z</time>
      </trkpt>
      <trkpt lat="44.13882" lon="4.98961">
        <ele>127</ele>
        <time>2021-01-24T10:56:45Z</time>
      </trkpt>
      <trkpt lat="44.13889" lon="4.98957">
        <ele>127</ele>
        <time>2021-01-24T10:56:51Z</time>
      </trkpt>
      <trkpt lat="44.13896" lon="4.98946">
        <ele>127</ele>
        <time>2021-01-24T10:57:00Z</time>
      </trkpt>
      <trkpt lat="44.13905" lon="4.98911">
        <ele>126</ele>
        <time>2021-01-24T10:57:21Z</time>
      </trkpt>
      <trkpt lat="44.1388" lon="4.98855">
        <ele>124</ele>
        <time>2021-01-24T10:57:59Z</time>
      </trkpt>
      <trkpt lat="44.13853" lon="4.98808">
        <ele>123</ele>
        <time>2021-01-24T10:58:34Z</time>
      </trkpt>
      <trkpt lat="44.13838" lon="4.98771">
        <ele>124</ele>
        <time>2021-01-24T10:58:58Z</time>
      </trkpt>
    </trkseg>
  </trk>
</gpx>